Wetterdaten: Woche 24.10.11 - 30.10.11 (KW43)
Datum Zeit Temp. A. Feuchte A. Luftdruck Regen Wind Richtung Taupunkt Windchill Windben
24.10.2011 00:00 7,4 C 80 % 1022,8 hPa 0,5 l/m 0,0 km/h N 4,2 C 7,4 C 0,0 km/h
24.10.2011 01:00 7,6 C 79 % 1022,6 hPa 0,0 l/m 0,0 km/h N 4,2 C 7,6 C 0,8 km/h
24.10.2011 02:00 7,6 C 79 % 1022,0 hPa 0,3 l/m 0,0 km/h N 4,2 C 7,6 C 0,0 km/h
24.10.2011 03:00 7,6 C 79 % 1021,6 hPa 0,5 l/m 0,0 km/h N 4,2 C 7,6 C 0,0 km/h
24.10.2011 04:00 7,6 C 79 % 1021,2 hPa 0,8 l/m 0,0 km/h N 4,2 C 7,6 C 0,0 km/h
24.10.2011 05:00 7,6 C 79 % 1020,9 hPa 0,5 l/m 0,0 km/h N 4,2 C 7,6 C 0,0 km/h
24.10.2011 06:00 7,6 C 79 % 1020,6 hPa 0,5 l/m 0,0 km/h N 4,2 C 7,6 C 0,8 km/h
24.10.2011 07:00 7,7 C 79 % 1020,3 hPa 0,0 l/m 0,0 km/h N 4,3 C 7,7 C 0,4 km/h
24.10.2011 08:00 8,1 C 78 % 1020,4 hPa 0,0 l/m 0,0 km/h N 4,5 C 8,1 C 0,8 km/h
24.10.2011 09:00 8,9 C 78 % 1020,4 hPa 0,0 l/m 0,1 km/h N 5,3 C 8,9 C 2,0 km/h
24.10.2011 10:00 9,1 C 78 % 1020,3 hPa 0,0 l/m 0,1 km/h N 5,4 C 9,1 C 1,6 km/h
24.10.2011 11:00 9,3 C 77 % 1020,2 hPa 0,0 l/m 0,1 km/h N 5,4 C 9,3 C 2,4 km/h
24.10.2011 12:00 9,4 C 77 % 1020,0 hPa 0,0 l/m 0,1 km/h N 5,6 C 9,4 C 2,4 km/h
24.10.2011 13:00 9,6 C 77 % 1019,4 hPa 0,0 l/m 0,1 km/h N 5,7 C 9,6 C 4,8 km/h
24.10.2011 14:00 9,8 C 77 % 1018,8 hPa 0,0 l/m 0,2 km/h N 5,9 C 9,8 C 5,7 km/h
24.10.2011 15:00 9,9 C 77 % 1018,4 hPa 0,3 l/m 0,1 km/h N 6,1 C 9,9 C 2,4 km/h
24.10.2011 16:00 9,7 C 78 % 1018,2 hPa 0,3 l/m 0,1 km/h N 6,1 C 9,7 C 2,8 km/h
24.10.2011 17:00 9,5 C 78 % 1017,8 hPa 0,5 l/m 0,0 km/h N 5,9 C 9,5 C 1,6 km/h
24.10.2011 18:00 9,3 C 78 % 1017,8 hPa 4,2 l/m 0,1 km/h N 5,7 C 9,3 C 5,6 km/h
24.10.2011 19:00 8,9 C 79 % 1017,9 hPa 0,0 l/m 0,1 km/h N 5,4 C 8,9 C 2,4 km/h
24.10.2011 20:00 9,1 C 78 % 1017,7 hPa 0,0 l/m 0,2 km/h N 5,4 C 9,1 C 4,4 km/h
24.10.2011 21:00 8,9 C 78 % 1017,6 hPa 0,0 l/m 0,0 km/h N 5,3 C 8,9 C 2,0 km/h
24.10.2011 22:00 8,7 C 78 % 1017,4 hPa 0,0 l/m 0,0 km/h N 5,1 C 8,7 C 1,2 km/h
24.10.2011 23:00 8,4 C 79 % 1017,0 hPa 0,0 l/m 0,0 km/h N 4,9 C 8,4 C 1,2 km/h
25.10.2011 00:00 7,9 C 79 % 1016,5 hPa 0,0 l/m 0,2 km/h N 4,5 C 7,9 C 2,8 km/h
25.10.2011 01:00 7,7 C 79 % 1016,0 hPa 0,0 l/m 0,4 km/h N 4,3 C 7,7 C 4,8 km/h
25.10.2011 02:00 7,6 C 79 % 1015,3 hPa 0,0 l/m 0,7 km/h O 4,2 C 7,6 C 9,6 km/h
25.10.2011 03:00 7,6 C 80 % 1014,7 hPa 0,0 l/m 0,8 km/h O 4,3 C 7,6 C 8,0 km/h
25.10.2011 04:00 7,7 C 81 % 1014,4 hPa 0,0 l/m 1,4 km/h O 4,7 C 7,7 C 14,1 km/h
25.10.2011 05:00 7,8 C 83 % 1014,1 hPa 0,0 l/m 1,3 km/h SO 5,0 C 7,8 C 8,9 km/h
25.10.2011 06:00 7,9 C 83 % 1013,7 hPa 0,0 l/m 1,3 km/h O 5,2 C 7,9 C 13,7 km/h
25.10.2011 07:00 7,9 C 83 % 1013,6 hPa 0,0 l/m 1,2 km/h SO 5,2 C 7,9 C 9,3 km/h
25.10.2011 08:00 8,2 C 83 % 1013,7 hPa 0,0 l/m 0,7 km/h N 5,4 C 8,2 C 6,8 km/h
25.10.2011 09:00 8,5 C 83 % 1013,3 hPa 0,0 l/m 1,5 km/h O-SO 5,8 C 8,5 C 11,7 km/h
25.10.2011 10:00 8,9 C 84 % 1013,2 hPa 0,0 l/m 2,2 km/h O-NO 6,3 C 8,9 C 14,1 km/h
25.10.2011 11:00 9,3 C 84 % 1013,0 hPa 0,0 l/m 2,3 km/h N-NO 6,7 C 9,3 C 13,7 km/h
25.10.2011 12:00 9,6 C 84 % 1012,8 hPa 0,0 l/m 2,2 km/h SO 7,0 C 9,6 C 18,5 km/h
25.10.2011 13:00 9,8 C 84 % 1012,5 hPa 0,0 l/m 2,2 km/h SO 7,3 C 9,8 C 13,7 km/h
25.10.2011 14:00 10,1 C 84 % 1012,3 hPa 0,0 l/m 1,8 km/h S-SO 7,5 C 10,1 C 14,9 km/h
25.10.2011 15:00 10,3 C 84 % 1012,1 hPa 0,0 l/m 2,1 km/h O 7,6 C 10,3 C 14,5 km/h
25.10.2011 16:00 10,4 C 84 % 1012,2 hPa 0,0 l/m 2,1 km/h SO 7,8 C 10,4 C 10,9 km/h
25.10.2011 17:00 10,2 C 83 % 1012,3 hPa 0,0 l/m 3,0 km/h NO 7,5 C 10,2 C 17,3 km/h
25.10.2011 18:00 10,1 C 83 % 1012,6 hPa 0,0 l/m 2,8 km/h NO 7,3 C 10,1 C 17,3 km/h
25.10.2011 19:00 10,2 C 83 % 1013,0 hPa 0,0 l/m 1,7 km/h O-SO 7,4 C 10,2 C 15,7 km/h
25.10.2011 20:00 10,3 C 83 % 1013,1 hPa 0,0 l/m 1,1 km/h O-SO 7,5 C 10,3 C 9,7 km/h
25.10.2011 21:00 10,6 C 83 % 1013,4 hPa 0,0 l/m 1,5 km/h O-NO 7,8 C 10,6 C 13,7 km/h
25.10.2011 22:00 10,9 C 83 % 1013,7 hPa 0,0 l/m 2,1 km/h NO 8,1 C 10,9 C 15,7 km/h
25.10.2011 23:00 11,1 C 83 % 1013,7 hPa 0,0 l/m 0,6 km/h N 8,3 C 11,1 C 8,8 km/h
26.10.2011 00:00 10,9 C 83 % 1013,8 hPa 0,0 l/m 0,2 km/h N 8,1 C 10,9 C 3,2 km/h
26.10.2011 01:00 10,8 C 82 % 1014,2 hPa 0,0 l/m 0,3 km/h N 7,8 C 10,8 C 4,0 km/h
26.10.2011 02:00 10,6 C 82 % 1014,3 hPa 0,0 l/m 0,4 km/h N 7,7 C 10,6 C 3,6 km/h
26.10.2011 03:00 10,4 C 81 % 1014,6 hPa 0,3 l/m 0,3 km/h N 7,3 C 10,4 C 3,6 km/h
26.10.2011 04:00 10,2 C 81 % 1014,1 hPa 0,0 l/m 0,6 km/h S-SO 7,1 C 10,2 C 6,4 km/h
26.10.2011 05:00 9,9 C 81 % 1014,2 hPa 0,0 l/m 1,1 km/h S 6,8 C 9,9 C 8,1 km/h
26.10.2011 06:00 9,4 C 82 % 1014,5 hPa 0,0 l/m 0,7 km/h N 6,4 C 9,4 C 7,6 km/h
26.10.2011 07:00 9,1 C 82 % 1015,0 hPa 0,0 l/m 0,6 km/h N 6,2 C 9,1 C 7,6 km/h
26.10.2011 08:00 8,8 C 82 % 1016,4 hPa 0,3 l/m 0,7 km/h N 5,8 C 8,8 C 5,6 km/h
26.10.2011 09:00 8,8 C 81 % 1017,5 hPa 0,8 l/m 0,5 km/h N 5,7 C 8,8 C 6,4 km/h
26.10.2011 10:00 8,9 C 81 % 1018,2 hPa 0,8 l/m 0,5 km/h N 5,7 C 8,9 C 6,4 km/h
26.10.2011 11:00 9,0 C 80 % 1019,0 hPa 0,3 l/m 0,3 km/h N 5,8 C 9,0 C 6,4 km/h
26.10.2011 12:00 8,9 C 80 % 1019,5 hPa 0,0 l/m 0,3 km/h N 5,7 C 8,9 C 5,2 km/h
26.10.2011 13:00 9,0 C 81 % 1019,5 hPa 0,0 l/m 0,1 km/h N 5,9 C 9,0 C 3,6 km/h
26.10.2011 14:00 8,9 C 81 % 1019,6 hPa 0,0 l/m 0,1 km/h N 5,8 C 8,9 C 2,4 km/h
26.10.2011 15:00 9,0 C 82 % 1019,6 hPa 0,0 l/m 0,1 km/h N 6,0 C 9,0 C 3,6 km/h
26.10.2011 16:00 9,2 C 82 % 1019,8 hPa 0,0 l/m 0,1 km/h N 6,3 C 9,2 C 2,0 km/h
26.10.2011 17:00 9,1 C 83 % 1019,9 hPa 0,0 l/m 0,2 km/h N 6,4 C 9,1 C 4,8 km/h
26.10.2011 18:00 9,0 C 83 % 1020,1 hPa 0,0 l/m 0,1 km/h N 6,2 C 9,0 C 1,6 km/h
26.10.2011 19:00 8,9 C 83 % 1020,6 hPa 0,0 l/m 0,0 km/h N 6,2 C 8,9 C 0,8 km/h
26.10.2011 20:00 8,8 C 83 % 1020,6 hPa 0,0 l/m 0,0 km/h N 6,1 C 8,8 C 1,6 km/h
26.10.2011 21:00 8,6 C 83 % 1020,7 hPa 0,0 l/m 0,0 km/h N 5,9 C 8,6 C 0,0 km/h
26.10.2011 22:00 8,6 C 83 % 1021,0 hPa 0,0 l/m 0,0 km/h N 5,8 C 8,6 C 0,0 km/h
26.10.2011 23:00 8,6 C 83 % 1021,0 hPa 0,0 l/m 0,0 km/h N 5,8 C 8,6 C 0,0 km/h
27.10.2011 00:00 8,5 C 82 % 1021,2 hPa 0,0 l/m 0,0 km/h N 5,6 C 8,5 C 0,0 km/h
27.10.2011 01:00 8,4 C 82 % 1021,3 hPa 0,0 l/m 0,0 km/h N 5,5 C 8,4 C 0,0 km/h
27.10.2011 02:00 8,4 C 82 % 1021,5 hPa 0,0 l/m 0,0 km/h N 5,5 C 8,4 C 0,0 km/h
27.10.2011 03:00 8,6 C 82 % 1021,1 hPa 0,5 l/m 0,0 km/h N 5,6 C 8,6 C 0,4 km/h
27.10.2011 04:00 8,5 C 81 % 1021,1 hPa 0,0 l/m 0,0 km/h N 5,5 C 8,5 C 0,0 km/h
27.10.2011 05:00 8,3 C 81 % 1021,4 hPa 0,0 l/m 0,0 km/h N 5,3 C 8,3 C 0,4 km/h
27.10.2011 06:00 8,3 C 81 % 1021,2 hPa 0,0 l/m 0,0 km/h N 5,2 C 8,3 C 1,2 km/h
27.10.2011 07:00 8,2 C 81 % 1021,1 hPa 0,0 l/m 0,1 km/h N 5,1 C 8,2 C 4,0 km/h
27.10.2011 08:00 8,1 C 81 % 1021,6 hPa 0,0 l/m 0,1 km/h N 5,1 C 8,1 C 2,8 km/h
27.10.2011 09:00 8,2 C 82 % 1022,1 hPa 0,0 l/m 0,1 km/h N 5,2 C 8,2 C 2,8 km/h
27.10.2011 10:00 8,3 C 83 % 1022,1 hPa 0,0 l/m 0,4 km/h N 5,5 C 8,3 C 4,4 km/h
27.10.2011 11:00 8,6 C 83 % 1022,2 hPa 0,0 l/m 0,3 km/h N 5,9 C 8,6 C 4,0 km/h
27.10.2011 12:00 9,1 C 84 % 1021,9 hPa 0,0 l/m 0,4 km/h N 6,5 C 9,1 C 4,8 km/h
27.10.2011 13:00 9,7 C 84 % 1021,3 hPa 0,0 l/m 1,0 km/h O-SO 7,1 C 9,7 C 5,6 km/h
27.10.2011 14:00 9,8 C 83 % 1021,4 hPa 0,0 l/m 1,0 km/h O-SO 7,0 C 9,8 C 9,2 km/h
27.10.2011 15:00 9,6 C 83 % 1021,4 hPa 0,0 l/m 0,5 km/h N 6,9 C 9,6 C 7,2 km/h
27.10.2011 16:00 9,6 C 84 % 1021,1 hPa 0,0 l/m 0,2 km/h N 7,1 C 9,6 C 3,2 km/h
27.10.2011 17:00 9,7 C 84 % 1021,0 hPa 0,0 l/m 1,0 km/h S-SO 7,1 C 9,7 C 8,1 km/h
27.10.2011 18:00 9,7 C 84 % 1021,1 hPa 0,0 l/m 0,8 km/h N 7,1 C 9,7 C 10,1 km/h
27.10.2011 19:00 9,8 C 84 % 1021,0 hPa 0,0 l/m 0,9 km/h SO 7,2 C 9,8 C 9,7 km/h
27.10.2011 20:00 10,0 C 84 % 1021,0 hPa 0,0 l/m 0,9 km/h N 7,3 C 10,0 C 7,2 km/h
27.10.2011 21:00 10,0 C 84 % 1021,1 hPa 0,0 l/m 0,4 km/h N 7,4 C 10,0 C 6,4 km/h
27.10.2011 22:00 9,9 C 84 % 1021,2 hPa 0,0 l/m 0,3 km/h N 7,3 C 9,9 C 4,4 km/h
27.10.2011 23:00 9,9 C 84 % 1021,1 hPa 0,0 l/m 0,2 km/h N 7,3 C 9,9 C 3,6 km/h
28.10.2011 00:00 9,8 C 84 % 1021,3 hPa 0,0 l/m 0,3 km/h N 7,3 C 9,8 C 7,2 km/h
28.10.2011 01:00 9,5 C 84 % 1021,6 hPa 0,0 l/m 0,2 km/h N 6,9 C 9,5 C 4,4 km/h
28.10.2011 02:00 9,3 C 83 % 1021,9 hPa 0,0 l/m 0,0 km/h N 6,5 C 9,3 C 0,8 km/h
28.10.2011 03:00 8,9 C 83 % 1022,1 hPa 0,0 l/m 0,1 km/h N 6,2 C 8,9 C 3,2 km/h
28.10.2011 04:00 8,6 C 83 % 1022,4 hPa 0,0 l/m 0,0 km/h N 5,9 C 8,6 C 0,0 km/h
28.10.2011 05:00 8,8 C 82 % 1022,8 hPa 0,0 l/m 0,0 km/h N 5,9 C 8,8 C 0,0 km/h
28.10.2011 06:00 8,8 C 82 % 1023,0 hPa 0,0 l/m 0,0 km/h N 5,9 C 8,8 C 0,4 km/h
28.10.2011 07:00 8,8 C 82 % 1023,8 hPa 0,0 l/m 0,0 km/h N 5,9 C 8,8 C 0,0 km/h
28.10.2011 08:00 8,9 C 82 % 1024,6 hPa 0,0 l/m 0,0 km/h N 6,0 C 8,9 C 1,2 km/h
28.10.2011 09:00 8,8 C 82 % 1025,1 hPa 0,0 l/m 0,0 km/h N 5,9 C 8,8 C 1,2 km/h
28.10.2011 10:00 8,8 C 82 % 1025,8 hPa 0,0 l/m 0,0 km/h N 5,9 C 8,8 C 0,8 km/h
28.10.2011 11:00 9,0 C 83 % 1026,3 hPa 0,0 l/m 0,0 km/h N 6,3 C 9,0 C 0,4 km/h
28.10.2011 12:00 9,5 C 83 % 1026,5 hPa 0,0 l/m 0,0 km/h N 6,8 C 9,5 C 0,0 km/h
28.10.2011 13:00 9,9 C 84 % 1026,8 hPa 0,0 l/m 0,0 km/h N 7,2 C 9,9 C 1,6 km/h
28.10.2011 14:00 10,2 C 84 % 1027,1 hPa 0,0 l/m 0,0 km/h N 7,6 C 10,2 C 0,8 km/h
28.10.2011 15:00 10,4 C 84 % 1027,2 hPa 0,0 l/m 0,1 km/h N 7,8 C 10,4 C 1,2 km/h
28.10.2011 16:00 10,1 C 84 % 1027,2 hPa 0,0 l/m 0,1 km/h N 7,5 C 10,1 C 2,0 km/h
28.10.2011 17:00 9,9 C 84 % 1027,3 hPa 0,0 l/m 0,0 km/h N 7,3 C 9,9 C 0,4 km/h
28.10.2011 18:00 9,6 C 84 % 1027,7 hPa 0,0 l/m 0,0 km/h N 7,1 C 9,6 C 0,4 km/h
28.10.2011 19:00 9,3 C 84 % 1028,1 hPa 0,0 l/m 0,0 km/h N 6,7 C 9,3 C 0,0 km/h
28.10.2011 20:00 8,9 C 84 % 1028,4 hPa 0,0 l/m 0,0 km/h N 6,4 C 8,9 C 0,0 km/h
28.10.2011 21:00 8,7 C 84 % 1028,6 hPa 0,0 l/m 0,0 km/h N 6,2 C 8,7 C 0,0 km/h
28.10.2011 22:00 8,8 C 84 % 1029,0 hPa 0,0 l/m 0,0 km/h N 6,2 C 8,8 C 1,6 km/h
28.10.2011 23:00 8,9 C 83 % 1029,1 hPa 0,0 l/m 0,1 km/h N 6,2 C 8,9 C 2,0 km/h
29.10.2011 00:00 8,9 C 83 % 1029,1 hPa 0,0 l/m 0,0 km/h N 6,2 C 8,9 C 0,8 km/h
29.10.2011 01:00 8,9 C 83 % 1029,1 hPa 0,0 l/m 0,0 km/h N 6,2 C 8,9 C 0,4 km/h
29.10.2011 02:00 8,8 C 83 % 1029,2 hPa 0,0 l/m 0,0 km/h N 6,1 C 8,8 C 0,0 km/h
29.10.2011 03:00 8,8 C 83 % 1029,0 hPa 0,0 l/m 0,0 km/h N 6,1 C 8,8 C 0,0 km/h
29.10.2011 04:00 8,7 C 83 % 1028,9 hPa 0,0 l/m 0,0 km/h N 6,0 C 8,7 C 0,0 km/h
29.10.2011 05:00 8,6 C 83 % 1028,9 hPa 0,0 l/m 0,0 km/h N 5,9 C 8,6 C 0,0 km/h
29.10.2011 06:00 8,5 C 83 % 1028,9 hPa 0,0 l/m 0,0 km/h N 5,8 C 8,5 C 0,0 km/h
29.10.2011 07:00 8,4 C 82 % 1028,9 hPa 0,0 l/m 0,0 km/h N 5,5 C 8,4 C 0,0 km/h
29.10.2011 08:00 8,4 C 82 % 1029,2 hPa 0,0 l/m 0,0 km/h N 5,5 C 8,4 C 0,0 km/h
29.10.2011 09:00 8,7 C 82 % 1029,2 hPa 0,0 l/m 0,0 km/h N 5,8 C 8,7 C 0,0 km/h
29.10.2011 10:00 9,1 C 82 % 1029,0 hPa 0,0 l/m 0,0 km/h N 6,1 C 9,1 C 0,8 km/h
29.10.2011 11:00 9,5 C 84 % 1029,0 hPa 0,0 l/m 0,0 km/h N 6,8 C 9,5 C 0,8 km/h
29.10.2011 12:00 9,9 C 82 % 1028,8 hPa 0,0 l/m 0,0 km/h N 6,9 C 9,9 C 0,4 km/h
29.10.2011 13:00 10,6 C 78 % 1028,3 hPa 0,0 l/m 0,0 km/h N 6,9 C 10,6 C 1,6 km/h
29.10.2011 14:00 10,7 C 79 % 1027,8 hPa 0,0 l/m 0,1 km/h N 7,1 C 10,7 C 2,0 km/h
29.10.2011 15:00 11,0 C 78 % 1027,2 hPa 0,0 l/m 0,0 km/h N 7,2 C 11,0 C 1,2 km/h
29.10.2011 16:00 10,9 C 78 % 1027,1 hPa 0,0 l/m 0,0 km/h N 7,1 C 10,9 C 1,2 km/h
29.10.2011 17:00 10,7 C 79 % 1026,9 hPa 0,0 l/m 0,0 km/h N 7,3 C 10,7 C 0,0 km/h
29.10.2011 18:00 10,4 C 81 % 1027,0 hPa 0,0 l/m 0,0 km/h N 7,2 C 10,4 C 0,0 km/h
29.10.2011 19:00 10,0 C 82 % 1027,1 hPa 0,0 l/m 0,0 km/h N 7,2 C 10,0 C 0,0 km/h
29.10.2011 20:00 9,8 C 83 % 1026,9 hPa 0,0 l/m 0,0 km/h N 7,0 C 9,8 C 0,0 km/h
29.10.2011 21:00 9,6 C 84 % 1026,6 hPa 0,0 l/m 0,0 km/h N 6,9 C 9,6 C 0,0 km/h
29.10.2011 22:00 9,3 C 84 % 1026,4 hPa 0,0 l/m 0,0 km/h N 6,8 C 9,3 C 0,0 km/h
29.10.2011 23:00 9,2 C 84 % 1026,2 hPa 0,0 l/m 0,0 km/h N 6,7 C 9,2 C 0,0 km/h
30.10.2011 00:00 9,2 C 84 % 1025,9 hPa 0,0 l/m 0,0 km/h N 6,6 C 9,2 C 0,4 km/h
30.10.2011 01:00 9,1 C 84 % 1025,8 hPa 0,0 l/m 0,0 km/h N 6,6 C 9,1 C 0,0 km/h
30.10.2011 02:00 9,0 C 84 % 1025,3 hPa 0,0 l/m 0,0 km/h N 6,5 C 9,0 C 0,0 km/h
30.10.2011 03:00 9,0 C 84 % 1024,9 hPa 0,0 l/m 0,0 km/h N 6,4 C 9,0 C 0,0 km/h
30.10.2011 04:00 8,9 C 84 % 1024,8 hPa 0,0 l/m 0,0 km/h N 6,3 C 8,9 C 0,4 km/h
30.10.2011 05:00 8,1 C 84 % 1024,7 hPa 0,0 l/m 0,0 km/h N 5,6 C 8,1 C 0,0 km/h
30.10.2011 06:00 7,1 C 84 % 1024,9 hPa 0,0 l/m 0,0 km/h N 4,6 C 7,1 C 0,0 km/h
30.10.2011 07:00 7,3 C 84 % 1025,1 hPa 0,0 l/m 0,0 km/h N 4,6 C 7,3 C 0,0 km/h
30.10.2011 08:00 8,7 C 82 % 1025,3 hPa 0,0 l/m 0,0 km/h N 5,7 C 8,7 C 0,8 km/h
30.10.2011 09:00 9,6 C 83 % 1025,4 hPa 0,0 l/m 0,8 km/h S-SW 6,9 C 9,6 C 5,2 km/h
30.10.2011 10:00 10,4 C 79 % 1025,3 hPa 0,0 l/m 0,2 km/h N 6,9 C 10,4 C 3,6 km/h
30.10.2011 11:00 11,5 C 76 % 1025,0 hPa 0,0 l/m 0,6 km/h O-NO 7,4 C 11,5 C 4,0 km/h
30.10.2011 12:00 12,4 C 76 % 1024,6 hPa 0,0 l/m 0,6 km/h N 8,2 C 12,4 C 4,0 km/h
30.10.2011 13:00 12,7 C 74 % 1024,2 hPa 0,0 l/m 0,2 km/h N 8,2 C 12,7 C 3,2 km/h
30.10.2011 14:00 12,8 C 73 % 1023,9 hPa 0,0 l/m 0,2 km/h N 8,1 C 12,8 C 2,0 km/h
30.10.2011 15:00 12,7 C 74 % 1023,7 hPa 0,0 l/m 0,0 km/h N 8,2 C 12,7 C 2,0 km/h
30.10.2011 16:00 12,3 C 76 % 1023,7 hPa 0,0 l/m 0,0 km/h N 8,1 C 12,3 C 0,0 km/h
30.10.2011 17:00 11,0 C 79 % 1023,8 hPa 0,0 l/m 0,0 km/h N 7,4 C 11,0 C 0,4 km/h
30.10.2011 18:00 9,9 C 81 % 1024,1 hPa 0,0 l/m 0,0 km/h N 6,9 C 9,9 C 0,0 km/h
30.10.2011 19:00 9,3 C 83 % 1024,1 hPa 0,0 l/m 0,0 km/h N 6,6 C 9,3 C 0,4 km/h
30.10.2011 20:00 8,8 C 84 % 1024,2 hPa 0,0 l/m 0,0 km/h N 6,2 C 8,8 C 0,0 km/h
30.10.2011 21:00 8,5 C 84 % 1024,1 hPa 0,0 l/m 0,0 km/h N 6,0 C 8,5 C 0,0 km/h
30.10.2011 22:00 8,3 C 84 % 1023,9 hPa 0,0 l/m 0,0 km/h N 5,7 C 8,3 C 0,0 km/h
30.10.2011 23:00 7,9 C 84 % 1023,5 hPa 0,0 l/m 0,0 km/h N 5,3 C 7,9 C 0,0 km/h
Min-Datum _ 30.10.11 30.10.11 25.10.11 - 24.10.11 - 24.10.11 30.10.11 24.10.11
_ Min-Zeit 06:30 14:00 14:45 - 00:00 - 00:00 06:30 00:00
Minimum _ 7,0 C 73 % 1012,0 hPa - 0,0 km/h - 4,2 C 7,0 C 0,0 km/h
Max-Datum _ 30.10.11 25.10.11 29.10.11 24.10.11 25.10.11 - 30.10.11 30.10.11 25.10.11
_ Max-Zeit 14:30 10:15 01:30 18:00 17:45 - 12:45 14:30 06:45
Maximum _ 12,9 C 84 % 1029,2 hPa 4,2 l/m 4,4 km/h
NO
- 8,4 C 12,9 C 29,0 km/h
S-SO
Durchschnitt _ 9,2 C 82 % 1021,5 hPa #11,2 l/m 0,3 km/h SO 6,3 C 9,2 C 3,5 km/h